Time;durP1;ratioP1;P1;durP2;ratioP2;P2;SDS_P1;SDS_P2;PMS_P1;PMS_P2;Temp;Humidity;BMP_temperature;BMP_pressure;BME280_temperature;BME280_humidity;BME280_pressure;Samples;Min_cycle;Max_cycle;Signal;HPM_P1;HPM_P2
2021/03/15 06:43:14;;;;;;;;;;;19.30;55.60;;;;;;5115917;27;1455597;-62
2021/03/15 06:45:42;;;;;;;;;;;19.40;57.10;;;;;;5140229;27;19934;-66
2021/03/15 06:48:07;;;;;;;;;;;19.40;57.20;;;;;;5133158;27;19924;-63
2021/03/15 06:50:33;;;;;;;;;;;19.50;57.40;;;;;;5139373;27;19976;-63
2021/03/15 06:52:59;;;;;;;;;;;19.60;57.10;;;;;;5129548;27;19934;-63
2021/03/15 06:55:26;;;;;;;;;;;19.60;56.50;;;;;;5130910;27;19931;-63
2021/03/15 06:57:52;;;;;;;;;;;19.70;55.80;;;;;;5130069;28;19931;-60
2021/03/15 07:00:18;;;;;;;;;;;19.70;55.70;;;;;;5130093;28;20278;-63
2021/03/15 07:02:44;;;;;;;;;;;19.70;54.50;;;;;;5130497;28;19928;-61
2021/03/15 07:05:10;;;;;;;;;;;19.70;53.90;;;;;;5130440;28;20401;-61
2021/03/15 07:07:36;;;;;;;;;;;19.80;53.40;;;;;;5129828;28;19938;-63
2021/03/15 07:10:02;;;;;;;;;;;19.80;53.30;;;;;;5129985;28;20370;-62
2021/03/15 07:12:28;;;;;;;;;;;19.90;52.90;;;;;;5112241;28;20275;-63
2021/03/15 07:14:53;;;;;;;;;;;20.00;52.90;;;;;;5129174;28;19955;-63
2021/03/15 07:17:28;;;;;;;;;;;20.00;52.90;;;;;;5130848;28;19931;-64
2021/03/15 07:19:54;;;;;;;;;;;20.10;52.90;;;;;;5129913;28;19930;-64
2021/03/15 07:22:19;;;;;;;;;;;20.10;52.70;;;;;;5129728;28;20302;-62
2021/03/15 07:24:45;;;;;;;;;;;20.10;52.30;;;;;;5130068;28;19928;-63
2021/03/15 07:27:11;;;;;;;;;;;20.20;52.00;;;;;;5129885;28;19930;-62
2021/03/15 07:29:36;;;;;;;;;;;20.20;51.70;;;;;;5129322;28;19931;-62
2021/03/15 07:32:04;;;;;;;;;;;20.20;51.50;;;;;;5129668;28;19933;-63
2021/03/15 07:34:30;;;;;;;;;;;20.20;51.00;;;;;;5129616;28;19924;-62
2021/03/15 07:36:55;;;;;;;;;;;20.30;51.10;;;;;;5129539;27;19931;-62
2021/03/15 07:39:22;;;;;;;;;;;20.30;51.00;;;;;;5129973;28;19923;-62
2021/03/15 07:41:48;;;;;;;;;;;20.40;51.10;;;;;;5128734;28;20278;-62
2021/03/15 07:44:15;;;;;;;;;;;20.40;51.10;;;;;;5130097;28;19931;-62
2021/03/15 07:46:42;;;;;;;;;;;20.40;51.20;;;;;;5129863;28;19923;-61
2021/03/15 07:49:08;;;;;;;;;;;20.40;50.20;;;;;;5128745;28;19930;-61
2021/03/15 07:51:35;;;;;;;;;;;20.40;50.60;;;;;;5111553;28;19924;-63
2021/03/15 07:54:07;;;;;;;;;;;20.30;51.80;;;;;;5118793;28;20019;-63
2021/03/15 07:56:32;;;;;;;;;;;20.30;51.90;;;;;;5115172;28;19923;-63
2021/03/15 07:58:58;;;;;;;;;;;20.30;52.70;;;;;;5115596;28;20306;-62
2021/03/15 08:01:23;;;;;;;;;;;20.20;53.30;;;;;;5115928;28;19924;-62
2021/03/15 08:03:49;;;;;;;;;;;20.20;53.90;;;;;;5114805;28;19955;-63
2021/03/15 08:06:15;;;;;;;;;;;20.20;54.70;;;;;;5097736;28;19924;-63
2021/03/15 08:08:40;;;;;;;;;;;20.30;55.10;;;;;;5115503;28;19928;-63
2021/03/15 08:11:06;;;;;;;;;;;20.30;55.60;;;;;;5114559;28;19928;-62
2021/03/15 08:13:36;;;;;;;;;;;20.20;55.80;;;;;;5115849;28;19976;-62
2021/03/15 08:16:02;;;;;;;;;;;20.30;56.40;;;;;;5115230;28;19968;-63
2021/03/15 08:18:28;;;;;;;;;;;20.30;57.30;;;;;;5114982;28;20359;-62
2021/03/15 08:20:59;;;;;;;;;;;20.30;56.70;;;;;;5114954;28;19923;-62
2021/03/15 08:23:25;;;;;;;;;;;20.30;56.70;;;;;;5097302;28;20304;-62
2021/03/15 08:25:52;;;;;;;;;;;20.30;56.80;;;;;;5096161;28;19924;-63
2021/03/15 08:28:17;;;;;;;;;;;20.30;57.00;;;;;;5115564;28;20104;-62
2021/03/15 08:30:50;;;;;;;;;;;20.30;57.00;;;;;;5097084;28;19924;-62
2021/03/15 08:33:18;;;;;;;;;;;20.30;56.80;;;;;;5115591;28;19932;-62
2021/03/15 08:35:44;;;;;;;;;;;20.20;57.00;;;;;;5096981;28;19923;-62
2021/03/15 08:38:10;;;;;;;;;;;20.20;57.00;;;;;;5095964;28;20333;-62
2021/03/15 08:40:45;;;;;;;;;;;20.20;57.00;;;;;;5115481;28;20010;-62
2021/03/15 08:43:22;;;;;;;;;;;20.10;56.70;;;;;;5114680;28;19928;-62
2021/03/15 08:45:54;;;;;;;;;;;20.10;57.00;;;;;;5114068;28;19958;-62
2021/03/15 08:48:40;;;;;;;;;;;20.10;56.90;;;;;;5115042;28;19927;-62
2021/03/15 08:51:06;;;;;;;;;;;20.00;56.70;;;;;;5114373;28;19931;-62
2021/03/15 08:53:37;;;;;;;;;;;20.00;56.80;;;;;;5114283;28;19931;-61
2021/03/15 08:56:12;;;;;;;;;;;20.00;57.00;;;;;;5114565;28;19936;-62
2021/03/15 08:58:41;;;;;;;;;;;20.00;57.30;;;;;;5114833;28;19985;-61
2021/03/15 09:01:11;;;;;;;;;;;20.00;57.60;;;;;;5113464;28;19934;-62
2021/03/15 09:03:45;;;;;;;;;;;20.00;57.50;;;;;;5114817;28;19927;-61
2021/03/15 09:06:11;;;;;;;;;;;20.10;57.70;;;;;;5112786;28;20344;-61
2021/03/15 09:08:55;;;;;;;;;;;20.00;57.60;;;;;;5114650;28;19931;-61
2021/03/15 09:11:39;;;;;;;;;;;20.10;57.50;;;;;;5114436;28;19976;-61
2021/03/15 09:14:27;;;;;;;;;;;20.10;57.50;;;;;;5113543;28;19931;-61
2021/03/15 09:16:53;;;;;;;;;;;20.10;57.60;;;;;;5113808;28;20402;-62
2021/03/15 09:19:19;;;;;;;;;;;20.10;57.70;;;;;;5114295;28;19928;-61
2021/03/15 09:21:52;;;;;;;;;;;20.20;57.80;;;;;;5113074;28;19930;-62
2021/03/15 09:24:36;;;;;;;;;;;20.20;57.70;;;;;;5114155;28;20386;-61
2021/03/15 09:27:08;;;;;;;;;;;20.20;57.70;;;;;;5113499;28;19923;-61
2021/03/15 09:29:34;;;;;;;;;;;20.30;57.60;;;;;;5114296;28;19942;-61
2021/03/15 09:32:00;;;;;;;;;;;20.30;57.40;;;;;;5113483;28;19924;-61
2021/03/15 09:34:26;;;;;;;;;;;20.40;57.30;;;;;;5113160;28;20014;-61
2021/03/15 09:36:56;;;;;;;;;;;20.40;57.30;;;;;;5113652;28;19955;-62
2021/03/15 09:39:21;;;;;;;;;;;20.40;57.30;;;;;;5114197;28;19924;-62
2021/03/15 09:41:47;;;;;;;;;;;20.50;57.30;;;;;;5094518;28;19924;-64
2021/03/15 09:44:13;;;;;;;;;;;20.40;55.30;;;;;;5113688;28;20431;-62
2021/03/15 09:46:39;;;;;;;;;;;20.30;55.20;;;;;;5113661;28;19946;-63
2021/03/15 09:49:05;;;;;;;;;;;20.30;55.30;;;;;;5112704;28;19931;-62
2021/03/15 09:51:31;;;;;;;;;;;20.20;55.00;;;;;;5113978;28;19924;-62
2021/03/15 09:53:56;;;;;;;;;;;20.30;54.80;;;;;;5113320;28;19934;-63
2021/03/15 09:56:25;;;;;;;;;;;20.30;55.10;;;;;;5113027;28;20322;-62
2021/03/15 09:58:50;;;;;;;;;;;20.30;55.20;;;;;;5112969;28;19923;-63
2021/03/15 10:01:17;;;;;;;;;;;20.40;55.30;;;;;;5113506;28;19935;-62
2021/03/15 10:03:50;;;;;;;;;;;20.40;55.20;;;;;;5112669;28;19924;-62
2021/03/15 10:06:19;;;;;;;;;;;20.40;55.30;;;;;;5113579;28;19931;-64
2021/03/15 10:08:51;;;;;;;;;;;20.50;55.50;;;;;;5095180;28;20056;-64
2021/03/15 10:11:16;;;;;;;;;;;20.50;56.00;;;;;;5112670;28;19927;-61
2021/03/15 10:13:42;;;;;;;;;;;20.50;55.30;;;;;;5113267;28;20132;-64
2021/03/15 10:16:10;;;;;;;;;;;20.60;55.00;;;;;;5112738;28;19931;-61
2021/03/15 10:18:36;;;;;;;;;;;20.60;55.10;;;;;;5112835;28;19923;-62
2021/03/15 10:21:01;;;;;;;;;;;20.60;55.00;;;;;;5112844;28;19931;-64
2021/03/15 10:23:31;;;;;;;;;;;20.60;55.30;;;;;;5112660;28;19923;-67
2021/03/15 10:25:57;;;;;;;;;;;20.60;55.30;;;;;;5112667;28;19930;-69
2021/03/15 10:28:23;;;;;;;;;;;20.60;54.90;;;;;;5113214;28;19924;-69
2021/03/15 10:30:48;;;;;;;;;;;20.60;55.30;;;;;;5112341;28;19924;-67
2021/03/15 10:33:17;;;;;;;;;;;20.60;55.30;;;;;;5113050;28;19923;-65
2021/03/15 10:35:42;;;;;;;;;;;20.60;55.80;;;;;;5113025;28;20011;-67
2021/03/15 10:38:08;;;;;;;;;;;20.60;55.50;;;;;;5112009;28;20390;-62
2021/03/15 10:40:33;;;;;;;;;;;20.70;55.50;;;;;;5094989;28;19947;-61
2021/03/15 10:42:59;;;;;;;;;;;20.70;56.30;;;;;;5094113;28;19924;-62
2021/03/15 10:45:25;;;;;;;;;;;20.70;55.30;;;;;;5112201;28;19954;-60
2021/03/15 10:47:50;;;;;;;;;;;20.70;55.30;;;;;;5112625;28;19931;-61
2021/03/15 10:50:26;;;;;;;;;;;20.70;55.00;;;;;;5113145;28;20271;-61
2021/03/15 10:52:52;;;;;;;;;;;20.70;54.70;;;;;;5111606;28;19923;-64
2021/03/15 10:55:19;;;;;;;;;;;20.70;54.80;;;;;;5112971;28;19931;-63
2021/03/15 10:57:58;;;;;;;;;;;20.70;54.70;;;;;;5112514;28;19928;-63
2021/03/15 11:00:24;;;;;;;;;;;20.80;54.30;;;;;;5112167;28;20027;-61
2021/03/15 11:02:49;;;;;;;;;;;20.80;54.30;;;;;;5112187;28;19932;-65
2021/03/15 11:05:15;;;;;;;;;;;20.80;53.90;;;;;;5112937;28;19928;-63
2021/03/15 11:07:40;;;;;;;;;;;20.90;53.90;;;;;;5111836;28;19923;-62
2021/03/15 11:10:06;;;;;;;;;;;20.80;53.70;;;;;;5094098;28;19928;-62
2021/03/15 11:12:36;;;;;;;;;;;20.90;53.70;;;;;;5112175;28;19931;-62
2021/03/15 11:15:04;;;;;;;;;;;20.90;53.60;;;;;;5112365;28;19919;-62
2021/03/15 11:17:30;;;;;;;;;;;20.90;53.40;;;;;;5112654;28;19931;-62
2021/03/15 11:19:55;;;;;;;;;;;20.90;53.00;;;;;;5111353;28;19924;-62
2021/03/15 11:22:21;;;;;;;;;;;21.00;52.70;;;;;;5112513;28;19977;-62
2021/03/15 11:24:46;;;;;;;;;;;21.10;52.40;;;;;;5112202;28;19942;-62
2021/03/15 11:27:13;;;;;;;;;;;21.10;52.30;;;;;;5111748;28;19930;-62
2021/03/15 11:29:39;;;;;;;;;;;21.00;52.10;;;;;;5115739;28;19930;-62
2021/03/15 11:32:09;;;;;;;;;;;20.90;52.00;;;;;;5116217;28;19977;-62
2021/03/15 11:34:36;;;;;;;;;;;20.90;52.00;;;;;;5115880;28;19931;-62
2021/03/15 11:37:04;;;;;;;;;;;20.80;51.90;;;;;;5114605;28;19971;-62
2021/03/15 11:39:30;;;;;;;;;;;20.80;51.80;;;;;;5116496;28;20294;-62
2021/03/15 11:41:55;;;;;;;;;;;20.70;51.70;;;;;;5114737;28;19931;-62
2021/03/15 11:44:21;;;;;;;;;;;20.70;51.70;;;;;;5116238;28;19931;-60
2021/03/15 11:46:46;;;;;;;;;;;20.70;51.50;;;;;;5116026;28;19924;-60
2021/03/15 11:49:12;;;;;;;;;;;20.70;51.50;;;;;;5115197;28;20343;-65
2021/03/15 11:51:38;;;;;;;;;;;20.70;51.40;;;;;;5116238;28;19924;-62
2021/03/15 11:54:04;;;;;;;;;;;20.60;51.40;;;;;;5115699;28;19928;-63
2021/03/15 11:56:32;;;;;;;;;;;20.70;51.10;;;;;;5115625;28;19924;-64
2021/03/15 11:58:57;;;;;;;;;;;20.80;51.10;;;;;;5115615;28;19949;-61
2021/03/15 12:01:23;;;;;;;;;;;20.70;51.00;;;;;;5115973;28;19924;-59
2021/03/15 12:03:48;;;;;;;;;;;20.80;51.20;;;;;;5113720;28;19969;-59
2021/03/15 12:06:14;;;;;;;;;;;20.80;51.20;;;;;;5115563;28;20018;-60
2021/03/15 12:08:39;;;;;;;;;;;20.80;51.10;;;;;;5115452;28;19927;-60
2021/03/15 12:11:05;;;;;;;;;;;20.80;51.20;;;;;;5114814;28;19951;-59
2021/03/15 12:13:30;;;;;;;;;;;20.80;51.10;;;;;;5115850;28;19923;-60
2021/03/15 12:15:56;;;;;;;;;;;20.80;51.00;;;;;;5114456;28;20392;-63
2021/03/15 12:18:21;;;;;;;;;;;20.80;50.90;;;;;;5115699;28;19919;-64
2021/03/15 12:20:47;;;;;;;;;;;20.80;50.80;;;;;;5115250;28;19930;-64
2021/03/15 12:23:13;;;;;;;;;;;20.70;50.60;;;;;;5114423;28;19998;-64
2021/03/15 12:25:39;;;;;;;;;;;20.70;50.60;;;;;;5115682;28;20332;-62
2021/03/15 12:28:05;;;;;;;;;;;20.80;50.70;;;;;;5115138;28;20423;-62
2021/03/15 12:30:30;;;;;;;;;;;20.80;50.80;;;;;;5114806;28;20014;-61
2021/03/15 12:32:56;;;;;;;;;;;20.80;50.70;;;;;;5114814;28;19927;-61
2021/03/15 12:35:22;;;;;;;;;;;20.80;50.00;;;;;;5115295;28;19984;-66
2021/03/15 12:37:47;;;;;;;;;;;20.70;50.10;;;;;;5112971;28;19924;-66
2021/03/15 12:40:13;;;;;;;;;;;20.70;50.00;;;;;;5115044;28;19930;-66
2021/03/15 12:42:39;;;;;;;;;;;20.70;49.90;;;;;;5114674;28;20386;-67
2021/03/15 12:45:05;;;;;;;;;;;20.70;49.00;;;;;;5114039;28;19930;-66
2021/03/15 12:47:30;;;;;;;;;;;20.70;49.60;;;;;;5115294;28;20012;-66
2021/03/15 12:49:56;;;;;;;;;;;20.70;49.70;;;;;;5114474;28;20378;-61
2021/03/15 12:52:22;;;;;;;;;;;20.60;49.20;;;;;;5114229;28;19924;-61
2021/03/15 12:54:47;;;;;;;;;;;20.60;49.10;;;;;;5114825;28;19976;-66
2021/03/15 12:57:13;;;;;;;;;;;20.50;49.00;;;;;;5114669;28;19924;-63
2021/03/15 12:59:39;;;;;;;;;;;20.50;48.50;;;;;;5113922;28;19931;-63
2021/03/15 13:02:05;;;;;;;;;;;20.50;49.10;;;;;;5114378;28;20328;-62
2021/03/15 13:04:30;;;;;;;;;;;20.50;48.80;;;;;;5114677;28;19958;-61
2021/03/15 13:06:56;;;;;;;;;;;20.50;49.30;;;;;;5113298;28;19928;-62
2021/03/15 13:09:21;;;;;;;;;;;20.40;49.30;;;;;;5114644;28;19924;-61
2021/03/15 13:11:48;;;;;;;;;;;20.40;49.20;;;;;;5114465;28;19924;-60
2021/03/15 13:14:13;;;;;;;;;;;20.40;49.10;;;;;;5113680;28;19932;-61
2021/03/15 13:16:39;;;;;;;;;;;20.40;49.50;;;;;;5114308;28;19927;-61
2021/03/15 13:19:04;;;;;;;;;;;20.40;49.10;;;;;;5114027;28;20382;-61
2021/03/15 13:21:30;;;;;;;;;;;20.40;49.10;;;;;;5113488;28;19947;-63
2021/03/15 13:23:55;;;;;;;;;;;20.40;49.00;;;;;;5113975;28;19928;-63
2021/03/15 13:26:21;;;;;;;;;;;20.40;49.00;;;;;;5113815;28;20397;-61
2021/03/15 13:28:46;;;;;;;;;;;20.40;48.90;;;;;;5114099;28;19993;-65
2021/03/15 13:31:12;;;;;;;;;;;20.40;48.80;;;;;;5113951;28;19924;-64
2021/03/15 13:33:38;;;;;;;;;;;20.40;48.70;;;;;;5113371;28;19923;-64
2021/03/15 13:36:03;;;;;;;;;;;20.40;48.70;;;;;;5113650;28;19932;-64
2021/03/15 13:38:30;;;;;;;;;;;20.40;48.60;;;;;;5114328;28;19959;-64
2021/03/15 13:40:55;;;;;;;;;;;20.40;48.60;;;;;;5112702;28;20409;-65
2021/03/15 13:43:22;;;;;;;;;;;20.40;48.50;;;;;;5113910;28;19963;-64
2021/03/15 13:45:48;;;;;;;;;;;20.40;48.40;;;;;;5113682;28;19977;-62
2021/03/15 13:48:14;;;;;;;;;;;20.40;48.40;;;;;;5112748;28;19927;-64
2021/03/15 13:50:39;;;;;;;;;;;20.40;48.30;;;;;;5113099;28;19958;-64
2021/03/15 13:53:05;;;;;;;;;;;20.40;48.70;;;;;;5113572;28;19969;-66
2021/03/15 13:55:31;;;;;;;;;;;20.40;48.30;;;;;;5113118;28;19924;-63
2021/03/15 13:57:56;;;;;;;;;;;20.40;47.80;;;;;;5113279;28;20014;-63
2021/03/15 14:00:22;;;;;;;;;;;20.40;48.00;;;;;;5113811;28;19928;-63
2021/03/15 14:02:48;;;;;;;;;;;20.40;48.50;;;;;;5112615;28;19924;-63
2021/03/15 14:05:13;;;;;;;;;;;20.40;47.70;;;;;;5113226;28;19924;-62
2021/03/15 14:07:39;;;;;;;;;;;20.40;48.50;;;;;;5113660;28;19924;-64
2021/03/15 14:10:05;;;;;;;;;;;20.40;48.70;;;;;;5112419;28;19933;-64
2021/03/15 14:12:31;;;;;;;;;;;20.40;48.60;;;;;;5113634;28;19931;-64
2021/03/15 14:14:56;;;;;;;;;;;20.40;48.60;;;;;;5113005;28;19927;-64
2021/03/15 14:17:22;;;;;;;;;;;20.40;48.10;;;;;;5112579;28;19924;-64
2021/03/15 14:19:47;;;;;;;;;;;20.40;48.20;;;;;;5112989;28;20029;-63
2021/03/15 14:22:13;;;;;;;;;;;20.40;48.10;;;;;;5112907;28;20026;-62
2021/03/15 14:24:39;;;;;;;;;;;20.40;48.40;;;;;;5112500;28;19931;-62
2021/03/15 14:27:05;;;;;;;;;;;20.40;48.50;;;;;;5112956;28;19930;-62
2021/03/15 14:29:31;;;;;;;;;;;20.40;48.30;;;;;;5112546;28;19924;-65
2021/03/15 14:31:56;;;;;;;;;;;20.40;48.60;;;;;;5112718;28;19934;-64
2021/03/15 14:34:22;;;;;;;;;;;20.30;47.70;;;;;;5113157;28;19924;-64
2021/03/15 14:36:47;;;;;;;;;;;20.40;47.90;;;;;;5112390;28;19985;-64
2021/03/15 14:39:13;;;;;;;;;;;20.40;47.90;;;;;;5113069;28;20028;-64
2021/03/15 14:41:38;;;;;;;;;;;20.30;48.10;;;;;;5112735;28;19923;-64
2021/03/15 14:44:04;;;;;;;;;;;20.40;47.80;;;;;;5112229;28;19923;-64
2021/03/15 14:46:30;;;;;;;;;;;20.40;47.60;;;;;;5113301;28;20295;-62
2021/03/15 14:48:55;;;;;;;;;;;20.30;47.60;;;;;;5112610;28;19949;-62
2021/03/15 14:51:21;;;;;;;;;;;20.40;47.80;;;;;;5112385;28;19946;-62
2021/03/15 14:53:47;;;;;;;;;;;20.30;47.80;;;;;;5112765;28;19923;-62
2021/03/15 14:56:13;;;;;;;;;;;20.30;47.60;;;;;;5113060;28;19945;-62
2021/03/15 14:58:38;;;;;;;;;;;20.30;47.50;;;;;;5112372;28;19967;-62
2021/03/15 15:01:04;;;;;;;;;;;20.30;47.90;;;;;;5113138;28;19924;-62
2021/03/15 15:03:29;;;;;;;;;;;20.30;47.50;;;;;;5114342;28;19924;-62
2021/03/15 15:05:55;;;;;;;;;;;20.30;47.50;;;;;;5116294;28;20332;-62
2021/03/15 15:08:23;;;;;;;;;;;20.30;47.70;;;;;;5117364;28;20018;-61
2021/03/15 15:10:51;;;;;;;;;;;20.20;47.20;;;;;;5116767;27;19924;-62
2021/03/15 15:13:16;;;;;;;;;;;20.20;46.90;;;;;;5116300;28;19928;-63
2021/03/15 15:15:42;;;;;;;;;;;20.20;46.70;;;;;;5116719;28;19924;-63
2021/03/15 15:18:07;;;;;;;;;;;20.20;46.90;;;;;;5116320;28;19932;-64
2021/03/15 15:20:33;;;;;;;;;;;20.20;47.00;;;;;;5116204;28;19930;-64
2021/03/15 15:22:58;;;;;;;;;;;20.20;47.30;;;;;;5116175;28;19928;-60
2021/03/15 15:25:24;;;;;;;;;;;20.20;46.90;;;;;;5116865;28;19931;-60
2021/03/15 15:27:50;;;;;;;;;;;20.20;46.80;;;;;;5115321;28;19920;-60
2021/03/15 15:30:17;;;;;;;;;;;20.20;46.80;;;;;;5116663;28;20011;-60
2021/03/15 15:32:42;;;;;;;;;;;20.20;46.70;;;;;;5116323;27;19953;-64
2021/03/15 15:35:08;;;;;;;;;;;20.30;46.90;;;;;;5115729;28;20320;-64
2021/03/15 15:37:33;;;;;;;;;;;20.30;46.70;;;;;;5116728;28;19931;-64
2021/03/15 15:39:59;;;;;;;;;;;20.30;46.50;;;;;;5115201;28;20416;-64
2021/03/15 15:42:25;;;;;;;;;;;20.30;46.60;;;;;;5116105;28;20411;-65
2021/03/15 15:44:50;;;;;;;;;;;20.30;46.70;;;;;;5115899;28;19924;-65
2021/03/15 15:47:16;;;;;;;;;;;20.40;46.70;;;;;;5115477;28;19928;-64
2021/03/15 15:49:41;;;;;;;;;;;20.40;46.80;;;;;;5116237;28;19953;-65
2021/03/15 15:52:07;;;;;;;;;;;20.40;46.70;;;;;;5115979;28;19927;-64
2021/03/15 15:54:33;;;;;;;;;;;20.40;47.00;;;;;;5115482;28;19931;-65
2021/03/15 15:56:58;;;;;;;;;;;20.40;47.10;;;;;;5115602;28;19927;-64
2021/03/15 15:59:24;;;;;;;;;;;20.40;47.10;;;;;;5116051;28;19923;-65
2021/03/15 16:01:49;;;;;;;;;;;20.40;47.20;;;;;;5114436;28;20427;-64
2021/03/15 16:04:15;;;;;;;;;;;20.40;47.30;;;;;;5116276;28;19924;-63
2021/03/15 16:06:40;;;;;;;;;;;20.40;47.90;;;;;;5115865;28;19924;-63
2021/03/15 16:09:09;;;;;;;;;;;20.40;48.50;;;;;;5114649;28;19928;-63
2021/03/15 16:11:34;;;;;;;;;;;20.60;49.10;;;;;;5116024;28;20339;-63
2021/03/15 16:14:00;;;;;;;;;;;20.40;48.40;;;;;;5114713;28;19927;-64
2021/03/15 16:16:26;;;;;;;;;;;20.40;48.60;;;;;;5114945;28;20342;-63
2021/03/15 16:18:54;;;;;;;;;;;20.50;48.80;;;;;;5115278;28;20060;-63
2021/03/15 16:21:20;;;;;;;;;;;20.50;48.80;;;;;;5115297;28;19953;-63
2021/03/15 16:23:46;;;;;;;;;;;20.40;48.70;;;;;;5115242;27;20057;-63
2021/03/15 16:26:11;;;;;;;;;;;20.40;47.80;;;;;;5114327;27;20061;-62
2021/03/15 16:28:37;;;;;;;;;;;20.30;48.60;;;;;;5116294;27;19924;-62
2021/03/15 16:31:02;;;;;;;;;;;20.30;49.30;;;;;;5105531;27;19927;-61
2021/03/15 16:33:28;;;;;;;;;;;20.30;49.80;;;;;;5115534;27;20065;-61
2021/03/15 16:35:53;;;;;;;;;;;20.30;50.00;;;;;;5117104;27;20378;-62
2021/03/15 16:38:19;;;;;;;;;;;20.30;50.10;;;;;;5134521;27;19923;-62
2021/03/15 16:40:44;;;;;;;;;;;20.30;50.30;;;;;;5117900;27;19969;-63
2021/03/15 16:43:10;;;;;;;;;;;20.40;50.50;;;;;;5113793;27;19928;-63
2021/03/15 16:45:36;;;;;;;;;;;20.40;50.50;;;;;;5104542;27;19928;-63
2021/03/15 16:48:01;;;;;;;;;;;20.40;50.60;;;;;;5065817;28;72183;-62
2021/03/15 16:50:27;;;;;;;;;;;20.40;50.80;;;;;;5037942;28;79366;-63
2021/03/15 16:52:52;;;;;;;;;;;20.50;50.90;;;;;;5067192;28;19931;-64
2021/03/15 16:55:18;;;;;;;;;;;20.50;50.80;;;;;;5084943;28;19977;-66
2021/03/15 16:57:44;;;;;;;;;;;20.50;50.80;;;;;;5082843;28;19928;-66
2021/03/15 17:00:10;;;;;;;;;;;20.50;50.80;;;;;;5074279;28;19939;-66
2021/03/15 17:02:35;;;;;;;;;;;20.50;50.60;;;;;;5074206;28;19930;-63
2021/03/15 17:05:01;;;;;;;;;;;20.50;50.40;;;;;;5072473;28;19978;-63
2021/03/15 17:07:27;;;;;;;;;;;20.50;50.20;;;;;;5074091;28;19924;-64
2021/03/15 17:09:52;;;;;;;;;;;20.50;50.30;;;;;;5073411;28;20022;-64
2021/03/15 17:12:18;;;;;;;;;;;20.50;50.20;;;;;;5073027;28;19932;-64
2021/03/15 17:14:43;;;;;;;;;;;20.50;50.20;;;;;;5079077;28;19924;-65
2021/03/15 17:17:09;;;;;;;;;;;20.50;50.20;;;;;;5082834;28;19959;-65
2021/03/15 17:19:35;;;;;;;;;;;20.60;50.40;;;;;;5079128;28;19963;-65
2021/03/15 17:22:00;;;;;;;;;;;20.60;50.30;;;;;;5092677;28;20325;-66
2021/03/15 17:24:26;;;;;;;;;;;20.60;50.30;;;;;;5081564;28;19928;-67
2021/03/15 17:26:51;;;;;;;;;;;20.50;50.40;;;;;;5071290;28;19924;-61
2021/03/15 17:29:17;;;;;;;;;;;20.60;50.50;;;;;;5074480;28;19925;-63
2021/03/15 17:31:42;;;;;;;;;;;20.50;50.40;;;;;;5073138;28;19931;-65
2021/03/15 17:34:08;;;;;;;;;;;20.50;50.50;;;;;;5072384;28;19931;-62
2021/03/15 17:36:34;;;;;;;;;;;20.50;50.50;;;;;;5073129;28;19928;-63
2021/03/15 17:39:00;;;;;;;;;;;20.60;50.60;;;;;;5072825;28;19950;-63
2021/03/15 17:41:26;;;;;;;;;;;20.60;50.60;;;;;;5072545;28;19925;-63
2021/03/15 17:43:51;;;;;;;;;;;20.60;50.60;;;;;;5072168;28;19978;-62
2021/03/15 17:46:17;;;;;;;;;;;20.50;50.60;;;;;;5073343;28;20279;-62
2021/03/15 17:48:42;;;;;;;;;;;20.50;50.60;;;;;;5072028;28;20023;-61
2021/03/15 17:51:08;;;;;;;;;;;20.50;50.60;;;;;;5072489;28;19925;-62
2021/03/15 17:53:33;;;;;;;;;;;20.50;50.60;;;;;;5073612;28;20448;-63
2021/03/15 17:55:59;;;;;;;;;;;20.50;50.70;;;;;;5086572;28;19924;-62
2021/03/15 17:58:25;;;;;;;;;;;20.50;50.60;;;;;;5072449;28;19978;-61
2021/03/15 18:00:52;;;;;;;;;;;20.40;50.60;;;;;;5071541;28;19931;-65
2021/03/15 18:03:17;;;;;;;;;;;20.50;50.60;;;;;;5073004;28;19924;-65
2021/03/15 18:05:43;;;;;;;;;;;20.40;50.80;;;;;;5080179;28;19924;-65
2021/03/15 18:08:09;;;;;;;;;;;20.40;50.90;;;;;;5071824;28;20341;-66
2021/03/15 18:10:34;;;;;;;;;;;20.40;51.00;;;;;;5072702;28;19994;-70
2021/03/15 18:13:00;;;;;;;;;;;20.40;51.10;;;;;;5071725;28;19924;-68
2021/03/15 18:15:26;;;;;;;;;;;20.40;51.40;;;;;;5071824;28;19935;-66
2021/03/15 18:17:52;;;;;;;;;;;20.40;51.70;;;;;;5072082;28;19933;-66
2021/03/15 18:20:19;;;;;;;;;;;20.40;52.40;;;;;;5072821;28;19977;-62
2021/03/15 18:22:44;;;;;;;;;;;20.40;52.70;;;;;;5078732;28;19959;-63
2021/03/15 18:25:10;;;;;;;;;;;20.40;52.60;;;;;;5092684;28;19959;-62
2021/03/15 18:27:36;;;;;;;;;;;20.40;52.90;;;;;;5092070;28;20082;-65
2021/03/15 18:30:02;;;;;;;;;;;20.40;53.10;;;;;;5086279;28;20376;-64
2021/03/15 18:32:27;;;;;;;;;;;20.40;53.00;;;;;;5072467;28;19925;-64
2021/03/15 18:34:53;;;;;;;;;;;20.40;53.10;;;;;;5063669;28;20260;-63
2021/03/15 18:37:19;;;;;;;;;;;20.40;53.10;;;;;;5071677;28;19932;-63
2021/03/15 18:39:44;;;;;;;;;;;20.40;53.00;;;;;;5072480;28;19947;-63
2021/03/15 18:42:10;;;;;;;;;;;20.40;52.90;;;;;;5071610;28;19925;-64
2021/03/15 18:44:36;;;;;;;;;;;20.30;52.80;;;;;;5079589;28;19982;-64
2021/03/15 18:47:02;;;;;;;;;;;20.30;52.90;;;;;;5079930;28;20015;-65
2021/03/15 18:49:30;;;;;;;;;;;20.30;52.90;;;;;;5072188;28;19925;-65
2021/03/15 18:51:56;;;;;;;;;;;20.30;52.90;;;;;;5083469;28;20323;-63
2021/03/15 18:54:23;;;;;;;;;;;20.30;52.80;;;;;;5086024;28;19920;-69
2021/03/15 18:56:53;;;;;;;;;;;20.30;52.80;;;;;;5070921;28;19925;-65
2021/03/15 18:59:18;;;;;;;;;;;20.30;52.90;;;;;;5072360;28;19931;-70
2021/03/15 19:01:44;;;;;;;;;;;20.30;52.90;;;;;;5071965;28;20363;-64
2021/03/15 19:04:09;;;;;;;;;;;20.30;52.90;;;;;;5071133;28;19954;-61
2021/03/15 19:06:35;;;;;;;;;;;20.30;52.90;;;;;;5072131;28;19920;-61
2021/03/15 19:09:01;;;;;;;;;;;20.30;52.90;;;;;;5071487;28;19939;-62
2021/03/15 19:11:26;;;;;;;;;;;20.30;52.90;;;;;;5071360;28;19990;-62
2021/03/15 19:13:52;;;;;;;;;;;20.30;52.90;;;;;;5079501;28;19921;-61
2021/03/15 19:16:18;;;;;;;;;;;20.30;52.90;;;;;;5073185;28;19925;-60
2021/03/15 19:18:44;;;;;;;;;;;20.30;52.90;;;;;;5070705;28;19944;-60
2021/03/15 19:21:09;;;;;;;;;;;20.30;52.90;;;;;;5071732;28;19966;-61
2021/03/15 19:23:36;;;;;;;;;;;20.30;52.90;;;;;;5085316;28;20359;-61
2021/03/15 19:26:01;;;;;;;;;;;20.30;53.00;;;;;;5072213;28;19924;-61
2021/03/15 19:28:27;;;;;;;;;;;20.30;52.90;;;;;;5071797;28;19970;-61
2021/03/15 19:30:53;;;;;;;;;;;20.30;52.90;;;;;;5071402;28;20283;-62
2021/03/15 19:33:21;;;;;;;;;;;20.20;52.80;;;;;;5070986;28;20291;-60
2021/03/15 19:35:47;;;;;;;;;;;20.30;52.90;;;;;;5071552;28;20482;-65
2021/03/15 19:38:13;;;;;;;;;;;20.30;52.90;;;;;;5071293;28;20035;-63
2021/03/15 19:40:38;;;;;;;;;;;20.30;52.90;;;;;;5070836;28;20496;-63
2021/03/15 19:43:05;;;;;;;;;;;20.30;52.90;;;;;;5070975;28;19924;-65
2021/03/15 19:45:30;;;;;;;;;;;20.30;52.90;;;;;;5071849;28;19925;-66
2021/03/15 19:47:56;;;;;;;;;;;20.30;52.90;;;;;;5070340;28;19931;-65
2021/03/15 19:50:22;;;;;;;;;;;20.20;52.80;;;;;;5084147;28;19931;-64
2021/03/15 19:52:47;;;;;;;;;;;20.20;52.70;;;;;;5081652;28;19932;-63
2021/03/15 19:55:13;;;;;;;;;;;20.20;52.80;;;;;;5073940;28;20337;-63
2021/03/15 19:57:39;;;;;;;;;;;20.20;52.80;;;;;;5075449;28;19928;-61
2021/03/15 20:00:05;;;;;;;;;;;20.20;52.80;;;;;;5074052;28;19924;-62
2021/03/15 20:02:31;;;;;;;;;;;20.20;52.80;;;;;;5075308;28;19932;-62
2021/03/15 20:04:56;;;;;;;;;;;20.20;52.80;;;;;;5074461;28;19929;-62
2021/03/15 20:07:22;;;;;;;;;;;20.20;52.80;;;;;;5073653;28;19925;-62
2021/03/15 20:09:47;;;;;;;;;;;20.10;52.90;;;;;;5074397;28;20371;-63
2021/03/15 20:12:13;;;;;;;;;;;20.10;52.80;;;;;;5074715;28;19924;-61
2021/03/15 20:14:39;;;;;;;;;;;20.10;52.80;;;;;;5073999;28;19920;-61
2021/03/15 20:17:04;;;;;;;;;;;20.10;52.80;;;;;;5080630;28;20023;-61
2021/03/15 20:19:30;;;;;;;;;;;20.10;52.90;;;;;;5084464;28;19932;-61
2021/03/15 20:21:57;;;;;;;;;;;20.10;52.80;;;;;;5073201;28;20317;-61
2021/03/15 20:24:22;;;;;;;;;;;20.10;52.90;;;;;;5074523;28;19969;-62
2021/03/15 20:26:48;;;;;;;;;;;20.10;52.80;;;;;;5074559;28;19924;-60
2021/03/15 20:29:14;;;;;;;;;;;20.10;52.90;;;;;;5081308;28;20022;-61
2021/03/15 20:31:39;;;;;;;;;;;20.10;52.80;;;;;;5074316;28;19931;-64
2021/03/15 20:34:05;;;;;;;;;;;20.10;52.80;;;;;;5074003;28;20384;-61
2021/03/15 20:36:30;;;;;;;;;;;20.10;52.80;;;;;;5073443;28;19932;-63
2021/03/15 20:38:56;;;;;;;;;;;20.10;52.90;;;;;;5073837;28;19929;-61
2021/03/15 20:41:21;;;;;;;;;;;20.10;52.80;;;;;;5074489;28;19959;-62
2021/03/15 20:43:47;;;;;;;;;;;20.10;52.90;;;;;;5073067;28;20360;-62
2021/03/15 20:46:13;;;;;;;;;;;20.10;52.90;;;;;;5074041;28;19974;-62
2021/03/15 20:48:39;;;;;;;;;;;20.10;52.90;;;;;;5074829;28;19925;-63
2021/03/15 20:51:04;;;;;;;;;;;20.10;52.90;;;;;;5073105;28;19925;-64
2021/03/15 20:53:30;;;;;;;;;;;20.10;53.00;;;;;;5073628;28;19947;-64